Time;durP1;ratioP1;P1;durP2;ratioP2;P2;SDS_P1;SDS_P2;PMS_P1;PMS_P2;Temp;Humidity;BMP_temperature;BMP_pressure;BME280_temperature;BME280_humidity;BME280_pressure;Samples;Min_cycle;Max_cycle;Signal;HPM_P1;HPM_P2
2023/07/23 00:01:18;;;;;;;;;;;16.40;99.90;;;;;;8377505;28;19925;-70
2023/07/23 00:05:26;;;;;;;;;;;16.40;99.90;;;;;;8389179;28;19928;-70
2023/07/23 00:09:28;;;;;;;;;;;16.40;99.90;;;;;;8380519;28;19939;-70
2023/07/23 00:13:29;;;;;;;;;;;16.40;99.90;;;;;;8386587;28;20299;-71
2023/07/23 00:17:31;;;;;;;;;;;16.40;99.90;;;;;;8391271;28;19933;-71
2023/07/23 00:21:33;;;;;;;;;;;16.40;99.90;;;;;;8391401;28;19943;-71
2023/07/23 00:25:34;;;;;;;;;;;16.40;99.90;;;;;;8360832;28;19928;-71
2023/07/23 00:29:36;;;;;;;;;;;16.40;99.90;;;;;;8399482;28;19925;-71
2023/07/23 00:33:38;;;;;;;;;;;16.40;99.90;;;;;;8367138;28;19925;-70
2023/07/23 00:37:39;;;;;;;;;;;16.40;99.90;;;;;;8374060;28;19929;-70
2023/07/23 00:41:41;;;;;;;;;;;16.40;99.90;;;;;;8400466;28;20264;-70
2023/07/23 00:45:43;;;;;;;;;;;16.40;99.90;;;;;;8370684;28;19979;-70
2023/07/23 00:49:45;;;;;;;;;;;16.40;99.90;;;;;;8373878;28;19989;-71
2023/07/23 00:53:47;;;;;;;;;;;16.50;99.90;;;;;;8374129;28;19931;-71
2023/07/23 00:57:49;;;;;;;;;;;16.40;99.90;;;;;;8390630;28;20287;-71
2023/07/23 01:01:51;;;;;;;;;;;16.40;99.90;;;;;;8388757;28;20411;-70
2023/07/23 01:05:55;;;;;;;;;;;16.40;99.90;;;;;;8385808;28;20428;-70
2023/07/23 01:09:58;;;;;;;;;;;16.40;99.90;;;;;;8391719;28;20387;-71
2023/07/23 01:14:02;;;;;;;;;;;16.40;99.90;;;;;;8376167;28;19948;-71
2023/07/23 01:18:04;;;;;;;;;;;16.40;99.90;;;;;;8364523;28;20438;-71
2023/07/23 01:22:06;;;;;;;;;;;16.40;99.90;;;;;;8376515;28;20042;-71
2023/07/23 01:26:08;;;;;;;;;;;16.40;99.90;;;;;;8361089;28;19947;-71
2023/07/23 01:30:10;;;;;;;;;;;16.40;99.90;;;;;;8370943;28;19924;-71
2023/07/23 01:34:11;;;;;;;;;;;16.40;99.90;;;;;;8380776;28;20357;-71
2023/07/23 01:38:13;;;;;;;;;;;16.40;99.90;;;;;;8394245;28;19970;-71
2023/07/23 01:42:15;;;;;;;;;;;16.40;99.90;;;;;;8370120;28;19933;-71
2023/07/23 01:46:17;;;;;;;;;;;16.40;99.90;;;;;;8380642;28;19972;-70
2023/07/23 01:50:19;;;;;;;;;;;16.40;99.90;;;;;;8378572;28;19929;-71
2023/07/23 01:54:21;;;;;;;;;;;16.40;99.90;;;;;;8388659;28;19974;-71
2023/07/23 01:58:22;;;;;;;;;;;16.40;99.90;;;;;;8407283;28;19924;-70
2023/07/23 02:02:24;;;;;;;;;;;16.40;99.90;;;;;;8366839;28;20331;-71
2023/07/23 02:06:26;;;;;;;;;;;16.40;99.90;;;;;;8370960;28;19935;-71
2023/07/23 02:10:27;;;;;;;;;;;16.40;99.90;;;;;;8383830;28;19936;-71
2023/07/23 02:14:29;;;;;;;;;;;16.40;99.90;;;;;;8388163;28;19924;-71
2023/07/23 02:18:31;;;;;;;;;;;16.40;99.90;;;;;;8394211;28;19939;-71
2023/07/23 02:22:33;;;;;;;;;;;16.40;99.90;;;;;;8371747;28;19954;-71
2023/07/23 02:26:34;;;;;;;;;;;16.40;99.90;;;;;;8362707;28;19924;-71
2023/07/23 02:30:36;;;;;;;;;;;16.30;99.90;;;;;;8372491;28;19935;-71
2023/07/23 02:34:38;;;;;;;;;;;16.30;99.90;;;;;;8372384;28;19925;-71
2023/07/23 02:43:37;;;;;;;;;;;16.30;99.90;;;;;;8383357;28;19982;-71
2023/07/23 02:47:38;;;;;;;;;;;16.30;99.90;;;;;;8388576;28;20306;-71
2023/07/23 02:51:40;;;;;;;;;;;16.40;99.90;;;;;;8392987;28;19987;-71
2023/07/23 02:55:41;;;;;;;;;;;16.30;99.90;;;;;;8396664;28;19924;-71
2023/07/23 02:59:43;;;;;;;;;;;16.40;99.90;;;;;;8373950;28;19925;-71
2023/07/23 03:03:47;;;;;;;;;;;16.30;99.90;;;;;;8387697;28;19924;-71
2023/07/23 03:07:49;;;;;;;;;;;16.30;99.90;;;;;;8382311;28;19928;-71
2023/07/23 03:11:50;;;;;;;;;;;16.30;99.90;;;;;;8393205;28;19925;-70
2023/07/23 03:15:52;;;;;;;;;;;16.30;99.90;;;;;;8393545;28;19978;-70
2023/07/23 03:19:54;;;;;;;;;;;16.30;99.90;;;;;;8395384;28;19924;-71
2023/07/23 03:23:55;;;;;;;;;;;16.30;99.90;;;;;;8373645;28;19928;-71
2023/07/23 03:27:59;;;;;;;;;;;16.30;99.90;;;;;;8341356;28;19925;-71
2023/07/23 03:32:01;;;;;;;;;;;16.30;99.90;;;;;;8381525;28;19967;-71
2023/07/23 03:36:03;;;;;;;;;;;16.20;99.90;;;;;;8386977;28;19928;-71
2023/07/23 03:40:05;;;;;;;;;;;16.30;99.90;;;;;;8390708;28;19928;-71
2023/07/23 03:44:07;;;;;;;;;;;16.30;99.90;;;;;;8384116;28;19929;-71
2023/07/23 03:48:08;;;;;;;;;;;16.30;99.90;;;;;;8373294;28;19928;-71
2023/07/23 03:52:10;;;;;;;;;;;16.30;99.90;;;;;;8374881;28;19929;-71
2023/07/23 03:56:12;;;;;;;;;;;16.20;99.90;;;;;;8396156;28;19932;-71
2023/07/23 04:00:14;;;;;;;;;;;16.20;99.90;;;;;;8382867;28;19924;-71
2023/07/23 04:04:16;;;;;;;;;;;16.30;99.90;;;;;;8385240;28;19929;-70
2023/07/23 04:08:17;;;;;;;;;;;16.30;99.90;;;;;;8391028;28;19925;-71
2023/07/23 04:12:19;;;;;;;;;;;16.30;99.90;;;;;;8394259;28;19968;-70
2023/07/23 04:16:20;;;;;;;;;;;16.30;99.90;;;;;;8372162;28;19932;-71
2023/07/23 04:20:22;;;;;;;;;;;16.30;99.90;;;;;;8373685;28;20330;-71
2023/07/23 04:24:24;;;;;;;;;;;16.30;99.90;;;;;;8358364;28;19925;-70
2023/07/23 04:28:25;;;;;;;;;;;16.30;99.90;;;;;;8379233;28;20379;-70
2023/07/23 04:32:27;;;;;;;;;;;16.30;99.90;;;;;;8361907;28;19924;-70
2023/07/23 04:36:29;;;;;;;;;;;16.30;99.90;;;;;;8375743;28;19931;-71
2023/07/23 04:40:34;;;;;;;;;;;16.30;99.90;;;;;;8389571;28;20262;-71
2023/07/23 04:44:36;;;;;;;;;;;16.30;99.90;;;;;;8368481;28;19925;-71
2023/07/23 04:48:37;;;;;;;;;;;16.30;99.90;;;;;;8384302;28;19935;-71
2023/07/23 04:52:39;;;;;;;;;;;16.30;99.90;;;;;;8392697;28;19932;-71
2023/07/23 04:56:40;;;;;;;;;;;16.40;99.90;;;;;;8395314;28;19929;-71
2023/07/23 05:00:42;;;;;;;;;;;16.40;99.90;;;;;;8361146;28;20289;-71
2023/07/23 05:04:44;;;;;;;;;;;16.40;99.90;;;;;;8373364;28;19974;-71
2023/07/23 05:08:45;;;;;;;;;;;16.40;99.90;;;;;;8375986;28;19925;-71
2023/07/23 05:12:47;;;;;;;;;;;16.40;99.90;;;;;;8381001;28;19935;-70
2023/07/23 05:16:49;;;;;;;;;;;16.50;99.90;;;;;;8386274;28;19928;-71
2023/07/23 05:20:50;;;;;;;;;;;16.50;99.90;;;;;;8388200;28;19925;-71
2023/07/23 05:24:52;;;;;;;;;;;16.50;99.90;;;;;;8366950;28;19925;-71
2023/07/23 05:28:53;;;;;;;;;;;16.50;99.90;;;;;;8352371;28;19970;-71
2023/07/23 05:32:55;;;;;;;;;;;16.50;99.90;;;;;;8372688;28;20318;-71
2023/07/23 05:47:03;;;;;;;;;;;16.40;99.90;;;;;;8365052;28;19920;-71
2023/07/23 05:51:05;;;;;;;;;;;16.40;99.90;;;;;;8386815;28;19978;-70
2023/07/23 05:55:07;;;;;;;;;;;16.40;99.90;;;;;;8387182;28;19928;-71
2023/07/23 05:59:09;;;;;;;;;;;16.40;99.90;;;;;;8391466;28;19931;-70
2023/07/23 06:03:10;;;;;;;;;;;16.40;99.90;;;;;;8390342;28;20334;-71
2023/07/23 06:07:12;;;;;;;;;;;16.30;99.90;;;;;;8391622;28;19936;-71
2023/07/23 06:11:14;;;;;;;;;;;16.30;99.90;;;;;;8368910;28;19925;-71
2023/07/23 06:15:16;;;;;;;;;;;16.30;99.90;;;;;;8372333;28;19925;-70
2023/07/23 06:19:18;;;;;;;;;;;16.30;99.90;;;;;;8372966;28;19925;-71
2023/07/23 06:23:19;;;;;;;;;;;16.20;99.90;;;;;;8369596;28;19932;-71
2023/07/23 06:27:21;;;;;;;;;;;16.20;99.90;;;;;;8376014;28;19925;-71
2023/07/23 06:31:23;;;;;;;;;;;16.20;99.90;;;;;;8382500;28;19928;-71
2023/07/23 06:35:24;;;;;;;;;;;16.10;99.90;;;;;;8387936;28;19979;-71
2023/07/23 06:39:26;;;;;;;;;;;16.10;99.90;;;;;;8381106;28;19925;-71
2023/07/23 06:43:28;;;;;;;;;;;16.10;99.90;;;;;;8399687;28;19932;-71
2023/07/23 06:58:15;;;;;;;;;;;16.10;99.90;;;;;;8375274;28;20073;-70
2023/07/23 07:02:17;;;;;;;;;;;16.00;99.90;;;;;;8377392;28;20346;-70
2023/07/23 07:06:19;;;;;;;;;;;16.00;99.90;;;;;;8391109;28;19924;-71
2023/07/23 07:10:20;;;;;;;;;;;16.00;99.90;;;;;;8391810;28;19979;-71
2023/07/23 07:14:22;;;;;;;;;;;16.00;99.90;;;;;;8364641;28;19925;-71
2023/07/23 07:18:24;;;;;;;;;;;15.90;99.90;;;;;;8391920;28;19924;-71
2023/07/23 07:22:26;;;;;;;;;;;15.80;99.90;;;;;;8375830;28;19936;-70
2023/07/23 07:26:28;;;;;;;;;;;15.80;99.90;;;;;;8377095;28;19951;-71
2023/07/23 07:30:29;;;;;;;;;;;15.90;99.90;;;;;;8390513;28;19925;-71
2023/07/23 07:34:31;;;;;;;;;;;15.90;99.90;;;;;;8376455;28;19929;-71
2023/07/23 07:38:33;;;;;;;;;;;15.80;99.90;;;;;;8373915;28;19925;-71
2023/07/23 07:42:34;;;;;;;;;;;15.80;99.90;;;;;;8397350;28;19928;-70
2023/07/23 07:46:36;;;;;;;;;;;15.80;99.90;;;;;;8360376;28;19982;-70
2023/07/23 07:50:38;;;;;;;;;;;15.80;99.90;;;;;;8370615;28;19929;-71
2023/07/23 07:54:40;;;;;;;;;;;15.80;99.90;;;;;;8383192;28;19925;-71
2023/07/23 07:58:42;;;;;;;;;;;15.90;99.90;;;;;;8399639;28;19925;-71
2023/07/23 08:17:34;;;;;;;;;;;15.90;99.90;;;;;;8331603;28;19956;-71
2023/07/23 08:21:35;;;;;;;;;;;15.90;99.90;;;;;;8332529;28;20257;-71
2023/07/23 08:25:38;;;;;;;;;;;15.90;99.90;;;;;;8343985;28;19948;-70
2023/07/23 08:29:40;;;;;;;;;;;16.00;99.90;;;;;;8350034;28;19933;-71
2023/07/23 08:33:46;;;;;;;;;;;15.90;99.90;;;;;;8356345;28;19925;-70
2023/07/23 08:37:48;;;;;;;;;;;16.00;99.90;;;;;;8328096;28;19940;-70
2023/07/23 08:41:52;;;;;;;;;;;16.00;99.90;;;;;;8331621;28;19944;-70
2023/07/23 08:46:13;;;;;;;;;;;16.10;99.90;;;;;;8327584;28;19936;-71
2023/07/23 08:50:15;;;;;;;;;;;16.10;99.90;;;;;;8336654;28;19924;-71
2023/07/23 08:54:19;;;;;;;;;;;16.20;99.90;;;;;;8346302;28;19932;-71
2023/07/23 08:58:20;;;;;;;;;;;16.20;99.90;;;;;;8344976;28;19940;-71
2023/07/23 09:02:23;;;;;;;;;;;16.30;99.90;;;;;;8346444;28;20397;-71
2023/07/23 09:06:28;;;;;;;;;;;16.30;99.90;;;;;;8330950;28;20029;-71
2023/07/23 09:10:30;;;;;;;;;;;16.40;99.90;;;;;;8327918;28;19925;-71
2023/07/23 09:14:40;;;;;;;;;;;16.40;99.90;;;;;;8332655;28;19948;-70
2023/07/23 09:18:41;;;;;;;;;;;16.40;99.90;;;;;;8328385;28;19928;-71
2023/07/23 09:22:43;;;;;;;;;;;16.50;99.90;;;;;;8332494;28;19925;-71
2023/07/23 09:26:46;;;;;;;;;;;16.50;99.90;;;;;;8330483;28;19925;-71
2023/07/23 09:30:55;;;;;;;;;;;16.50;99.90;;;;;;8327409;28;19960;-71
2023/07/23 09:34:57;;;;;;;;;;;16.50;99.90;;;;;;8332399;28;20020;-71
2023/07/23 09:39:00;;;;;;;;;;;16.60;99.90;;;;;;8326973;28;19936;-71
2023/07/23 09:43:02;;;;;;;;;;;16.60;99.90;;;;;;8344401;28;19936;-71
2023/07/23 09:47:04;;;;;;;;;;;16.60;99.90;;;;;;8328104;28;19979;-72
2023/07/23 09:51:10;;;;;;;;;;;16.70;99.90;;;;;;8329994;28;20001;-71
2023/07/23 09:55:12;;;;;;;;;;;16.80;99.90;;;;;;8323700;28;19925;-70
2023/07/23 09:59:14;;;;;;;;;;;16.80;99.90;;;;;;8339952;28;20360;-71
2023/07/23 10:03:16;;;;;;;;;;;16.90;99.90;;;;;;8325477;28;19936;-72
2023/07/23 10:07:19;;;;;;;;;;;16.90;99.90;;;;;;8325701;28;20443;-71
2023/07/23 10:11:21;;;;;;;;;;;16.80;99.90;;;;;;8334744;28;19933;-71
2023/07/23 10:15:23;;;;;;;;;;;16.80;99.90;;;;;;8344499;28;19936;-71
2023/07/23 10:19:25;;;;;;;;;;;16.80;99.90;;;;;;8344920;28;19972;-70
2023/07/23 10:23:27;;;;;;;;;;;16.80;99.90;;;;;;8347957;28;19929;-70
2023/07/23 10:27:29;;;;;;;;;;;16.80;99.90;;;;;;8350852;28;20030;-71
2023/07/23 10:31:31;;;;;;;;;;;16.80;99.90;;;;;;8335489;28;19925;-71
2023/07/23 10:35:48;;;;;;;;;;;16.70;99.90;;;;;;8338157;28;20365;-71
2023/07/23 10:39:52;;;;;;;;;;;16.70;99.90;;;;;;8336948;28;19936;-71
2023/07/23 10:43:53;;;;;;;;;;;16.70;99.90;;;;;;8332411;28;19929;-71
2023/07/23 10:47:56;;;;;;;;;;;16.70;99.90;;;;;;8330400;28;19979;-70
2023/07/23 10:52:13;;;;;;;;;;;16.80;99.90;;;;;;8341582;28;20432;-71
2023/07/23 10:56:23;;;;;;;;;;;16.90;99.90;;;;;;8346608;28;19967;-71
2023/07/23 11:00:25;;;;;;;;;;;17.00;99.90;;;;;;8350454;28;19933;-71
2023/07/23 11:04:27;;;;;;;;;;;17.00;99.90;;;;;;8337032;28;19933;-71
2023/07/23 11:08:28;;;;;;;;;;;17.20;99.90;;;;;;8338204;28;19929;-71
2023/07/23 11:12:30;;;;;;;;;;;17.30;99.90;;;;;;8330892;28;19975;-71
2023/07/23 11:16:35;;;;;;;;;;;17.40;99.90;;;;;;8338834;28;19925;-70
2023/07/23 11:20:37;;;;;;;;;;;17.50;99.90;;;;;;8348277;28;19928;-71
2023/07/23 11:24:40;;;;;;;;;;;17.50;99.90;;;;;;8334991;28;19936;-70
2023/07/23 11:28:41;;;;;;;;;;;17.60;99.90;;;;;;8349283;28;19925;-71
2023/07/23 11:32:44;;;;;;;;;;;17.60;99.90;;;;;;8331107;28;19933;-72
2023/07/23 11:36:52;;;;;;;;;;;17.70;99.90;;;;;;8345774;28;19969;-70
2023/07/23 11:40:57;;;;;;;;;;;17.80;99.90;;;;;;8334504;28;20028;-71
2023/07/23 11:44:59;;;;;;;;;;;17.90;99.90;;;;;;8343373;28;20439;-70
2023/07/23 11:49:02;;;;;;;;;;;18.00;99.90;;;;;;8328925;28;19925;-71
2023/07/23 11:53:04;;;;;;;;;;;18.00;99.90;;;;;;8337750;28;19976;-71
2023/07/23 11:57:07;;;;;;;;;;;18.10;99.90;;;;;;8330131;28;20307;-71
2023/07/23 12:01:09;;;;;;;;;;;18.20;99.90;;;;;;8342044;28;19940;-71
2023/07/23 12:05:13;;;;;;;;;;;18.20;99.90;;;;;;8331880;28;19959;-71
2023/07/23 12:09:15;;;;;;;;;;;18.40;99.90;;;;;;8335285;28;19931;-71
2023/07/23 12:13:17;;;;;;;;;;;18.40;99.90;;;;;;8332419;28;19932;-71
2023/07/23 12:17:18;;;;;;;;;;;18.50;99.90;;;;;;8326522;28;20395;-71
2023/07/23 12:21:20;;;;;;;;;;;18.50;99.90;;;;;;8332161;28;19929;-72
2023/07/23 12:25:23;;;;;;;;;;;18.60;99.90;;;;;;8339147;28;19975;-72
2023/07/23 12:29:25;;;;;;;;;;;18.60;99.90;;;;;;8332371;28;19929;-71
2023/07/23 12:33:27;;;;;;;;;;;18.60;99.90;;;;;;8345791;28;20332;-71
2023/07/23 12:47:36;;;;;;;;;;;19.00;99.90;;;;;;8331959;28;20390;-71
2023/07/23 12:51:37;;;;;;;;;;;19.00;99.90;;;;;;8329881;28;19932;-71
2023/07/23 12:55:39;;;;;;;;;;;19.10;99.90;;;;;;8327982;28;20410;-71
2023/07/23 12:59:43;;;;;;;;;;;19.10;99.90;;;;;;8330628;28;19929;-71
2023/07/23 13:03:45;;;;;;;;;;;19.30;99.90;;;;;;8328098;28;20400;-71
2023/07/23 13:07:46;;;;;;;;;;;19.40;99.90;;;;;;8332792;28;20430;-71
2023/07/23 13:11:48;;;;;;;;;;;19.50;99.90;;;;;;8344769;28;20288;-71
2023/07/23 13:15:49;;;;;;;;;;;19.60;99.90;;;;;;8327509;28;19933;-72
2023/07/23 13:19:51;;;;;;;;;;;19.70;99.90;;;;;;8326639;28;19936;-71
2023/07/23 13:23:53;;;;;;;;;;;19.80;99.90;;;;;;8346851;28;19925;-71
2023/07/23 13:27:54;;;;;;;;;;;19.90;99.90;;;;;;8330968;28;19925;-71
2023/07/23 13:31:56;;;;;;;;;;;19.90;99.90;;;;;;8331370;28;19924;-72
2023/07/23 13:35:58;;;;;;;;;;;20.00;99.90;;;;;;8328854;28;20387;-71
2023/07/23 13:39:59;;;;;;;;;;;20.00;99.90;;;;;;8326071;28;19933;-71
2023/07/23 13:44:01;;;;;;;;;;;20.00;99.90;;;;;;8330538;28;20034;-72
2023/07/23 13:48:03;;;;;;;;;;;20.00;99.90;;;;;;8339529;28;19964;-71
2023/07/23 13:52:05;;;;;;;;;;;20.00;99.90;;;;;;8343370;28;19996;-72
2023/07/23 13:56:07;;;;;;;;;;;20.10;99.90;;;;;;8327207;28;19929;-72
2023/07/23 14:00:09;;;;;;;;;;;20.10;99.90;;;;;;8342705;28;19933;-71
2023/07/23 14:04:10;;;;;;;;;;;20.20;99.90;;;;;;8342305;28;19967;-71
2023/07/23 14:08:12;;;;;;;;;;;20.20;99.90;;;;;;8329376;28;20269;-71
2023/07/23 14:12:14;;;;;;;;;;;20.40;99.90;;;;;;8330849;28;19979;-71
2023/07/23 14:16:16;;;;;;;;;;;20.70;99.90;;;;;;8345650;28;19999;-71
2023/07/23 14:20:17;;;;;;;;;;;21.00;99.90;;;;;;8325304;28;19925;-71
2023/07/23 14:24:20;;;;;;;;;;;21.30;99.90;;;;;;8321790;28;21094;-71
2023/07/23 14:28:22;;;;;;;;;;;21.40;99.90;;;;;;8322470;28;19959;-71
2023/07/23 14:32:24;;;;;;;;;;;21.50;99.90;;;;;;8330010;28;19933;-71
2023/07/23 14:36:26;;;;;;;;;;;21.60;99.90;;;;;;8344518;28;19964;-72
2023/07/23 14:40:27;;;;;;;;;;;21.70;99.90;;;;;;8331915;28;20360;-72
2023/07/23 14:44:29;;;;;;;;;;;21.90;99.90;;;;;;8328542;28;19933;-72
2023/07/23 14:48:31;;;;;;;;;;;22.10;99.90;;;;;;8323734;28;19932;-71
2023/07/23 14:52:33;;;;;;;;;;;22.10;99.90;;;;;;8309568;28;19928;-71
2023/07/23 14:56:35;;;;;;;;;;;22.00;99.90;;;;;;8325492;28;19925;-71
2023/07/23 15:00:37;;;;;;;;;;;21.90;99.90;;;;;;8322286;28;19940;-72
2023/07/23 15:04:39;;;;;;;;;;;21.90;99.90;;;;;;8326349;28;19974;-72
2023/07/23 15:08:40;;;;;;;;;;;21.80;99.90;;;;;;8331560;28;20406;-72
2023/07/23 15:12:42;;;;;;;;;;;21.80;99.90;;;;;;8328781;28;19936;-72
2023/07/23 15:16:45;;;;;;;;;;;21.80;99.90;;;;;;8333356;28;19925;-73
2023/07/23 15:20:46;;;;;;;;;;;21.90;99.90;;;;;;8336329;28;19941;-71
2023/07/23 15:24:48;;;;;;;;;;;21.90;99.90;;;;;;8338579;28;19936;-73
2023/07/23 15:28:51;;;;;;;;;;;21.90;99.90;;;;;;8329315;28;19983;-72
2023/07/23 15:32:52;;;;;;;;;;;22.10;99.90;;;;;;8340963;28;19932;-72
2023/07/23 15:36:54;;;;;;;;;;;22.30;99.90;;;;;;8349962;28;19976;-72
2023/07/23 15:40:56;;;;;;;;;;;22.40;99.90;;;;;;8353323;28;20372;-72
2023/07/23 15:44:57;;;;;;;;;;;22.30;99.90;;;;;;8334974;28;19925;-72
2023/07/23 15:49:00;;;;;;;;;;;22.30;99.90;;;;;;8348934;28;20007;-71
2023/07/23 15:53:01;;;;;;;;;;;22.30;99.90;;;;;;8334759;28;19979;-72
2023/07/23 15:57:03;;;;;;;;;;;22.20;99.90;;;;;;8345272;28;19929;-71
2023/07/23 16:01:05;;;;;;;;;;;22.30;99.90;;;;;;8326037;28;19932;-72
2023/07/23 16:05:07;;;;;;;;;;;22.30;99.90;;;;;;8331925;28;19939;-72
2023/07/23 16:09:09;;;;;;;;;;;22.20;99.90;;;;;;8331077;28;19929;-71
2023/07/23 16:13:10;;;;;;;;;;;22.30;99.90;;;;;;8350804;28;19933;-72
2023/07/23 16:17:12;;;;;;;;;;;22.50;99.90;;;;;;8340034;28;20023;-72
2023/07/23 16:21:14;;;;;;;;;;;22.70;99.90;;;;;;8333970;28;19971;-72
2023/07/23 16:25:15;;;;;;;;;;;22.80;99.90;;;;;;8332091;28;19925;-72
2023/07/23 16:29:17;;;;;;;;;;;22.80;99.90;;;;;;8334396;28;19971;-72
2023/07/23 16:33:19;;;;;;;;;;;22.60;99.90;;;;;;8352914;28;19932;-72
2023/07/23 16:37:21;;;;;;;;;;;22.60;99.90;;;;;;8329766;28;19925;-72
2023/07/23 16:41:23;;;;;;;;;;;22.50;99.90;;;;;;8332234;28;20197;-72
2023/07/23 16:45:25;;;;;;;;;;;22.50;99.90;;;;;;8349938;28;20273;-72
2023/07/23 16:49:26;;;;;;;;;;;22.50;99.90;;;;;;8352065;28;20368;-72
2023/07/23 16:53:29;;;;;;;;;;;22.50;99.90;;;;;;8327640;28;19940;-72
2023/07/23 16:57:30;;;;;;;;;;;22.50;99.90;;;;;;8337480;28;19929;-71
2023/07/23 17:01:32;;;;;;;;;;;22.40;99.90;;;;;;8330101;28;19928;-72
2023/07/23 17:05:34;;;;;;;;;;;22.40;99.90;;;;;;8331169;28;20388;-72
2023/07/23 17:09:40;;;;;;;;;;;22.40;99.90;;;;;;8334202;28;20296;-71
2023/07/23 17:13:42;;;;;;;;;;;22.30;99.90;;;;;;8328435;28;20407;-72
2023/07/23 17:17:44;;;;;;;;;;;22.00;99.90;;;;;;8340285;28;19933;-71
2023/07/23 17:21:46;;;;;;;;;;;21.70;99.90;;;;;;8336407;28;20532;-71
2023/07/23 17:25:47;;;;;;;;;;;21.60;99.90;;;;;;8328862;28;19925;-71
2023/07/23 17:29:51;;;;;;;;;;;21.50;99.90;;;;;;8329244;28;20009;-71
2023/07/23 17:33:53;;;;;;;;;;;21.40;99.90;;;;;;8352034;28;19936;-71
2023/07/23 17:37:54;;;;;;;;;;;21.40;99.90;;;;;;8331503;28;19932;-71
2023/07/23 17:41:56;;;;;;;;;;;21.40;99.90;;;;;;8356164;28;19932;-72
2023/07/23 17:45:57;;;;;;;;;;;21.40;99.90;;;;;;8343838;28;19979;-72
2023/07/23 17:49:59;;;;;;;;;;;21.40;99.90;;;;;;8346637;28;19925;-72
2023/07/23 17:54:01;;;;;;;;;;;21.40;99.90;;;;;;8343845;28;20451;-72
2023/07/23 17:58:03;;;;;;;;;;;21.30;99.90;;;;;;8326979;28;19925;-71
2023/07/23 18:02:04;;;;;;;;;;;21.30;99.90;;;;;;8336131;28;19929;-72
2023/07/23 18:06:06;;;;;;;;;;;21.30;99.90;;;;;;8332573;28;19978;-72
2023/07/23 18:10:08;;;;;;;;;;;21.30;99.90;;;;;;8333041;28;19981;-72
2023/07/23 18:14:09;;;;;;;;;;;21.20;99.90;;;;;;8319696;28;19944;-71
2023/07/23 18:18:11;;;;;;;;;;;21.20;99.90;;;;;;8350603;28;19933;-72
2023/07/23 18:22:14;;;;;;;;;;;21.20;99.90;;;;;;8332669;28;19929;-72
2023/07/23 18:26:16;;;;;;;;;;;21.20;99.90;;;;;;8342606;28;19958;-71
2023/07/23 18:30:18;;;;;;;;;;;21.10;99.90;;;;;;8351985;28;19987;-72
2023/07/23 18:34:20;;;;;;;;;;;21.10;99.90;;;;;;8341423;28;19932;-71
2023/07/23 18:38:22;;;;;;;;;;;21.10;99.90;;;;;;8344725;28;19951;-71
2023/07/23 18:42:24;;;;;;;;;;;21.10;99.90;;;;;;8334371;28;20369;-71
2023/07/23 18:46:26;;;;;;;;;;;21.00;99.90;;;;;;8333642;28;19980;-71
2023/07/23 18:50:28;;;;;;;;;;;21.00;99.90;;;;;;8328698;28;19936;-71
2023/07/23 18:54:30;;;;;;;;;;;20.90;99.90;;;;;;8335238;28;19976;-71
2023/07/23 18:58:32;;;;;;;;;;;20.90;99.90;;;;;;8333031;28;19939;-71
2023/07/23 19:02:34;;;;;;;;;;;20.90;99.90;;;;;;8336459;28;19933;-71
2023/07/23 19:06:35;;;;;;;;;;;20.80;99.90;;;;;;8333948;28;19925;-72
2023/07/23 19:10:37;;;;;;;;;;;20.80;99.90;;;;;;8334948;28;19932;-71
2023/07/23 19:14:38;;;;;;;;;;;20.80;99.90;;;;;;8333128;28;19925;-71
2023/07/23 19:18:40;;;;;;;;;;;20.80;99.90;;;;;;8339814;28;20039;-72
2023/07/23 19:22:42;;;;;;;;;;;20.80;99.90;;;;;;8351238;28;20284;-71
2023/07/23 19:26:43;;;;;;;;;;;20.70;99.90;;;;;;8336670;28;19924;-71
2023/07/23 19:30:45;;;;;;;;;;;20.70;99.90;;;;;;8336446;28;20966;-72
2023/07/23 19:34:47;;;;;;;;;;;20.70;99.90;;;;;;8333595;28;19929;-71
2023/07/23 19:38:49;;;;;;;;;;;20.70;99.90;;;;;;8332710;28;19937;-71
2023/07/23 19:42:50;;;;;;;;;;;20.60;99.90;;;;;;8332052;28;19933;-72
2023/07/23 19:46:52;;;;;;;;;;;20.60;99.90;;;;;;8336714;28;19933;-71
2023/07/23 19:50:54;;;;;;;;;;;20.50;99.90;;;;;;8335538;28;19925;-71
2023/07/23 19:54:55;;;;;;;;;;;20.40;99.90;;;;;;8325831;28;19925;-71
2023/07/23 19:58:57;;;;;;;;;;;20.40;99.90;;;;;;8335727;28;19925;-71
2023/07/23 20:02:59;;;;;;;;;;;20.40;99.90;;;;;;8331636;28;20331;-72
2023/07/23 20:07:00;;;;;;;;;;;20.30;99.90;;;;;;8334057;28;19933;-70
2023/07/23 20:11:02;;;;;;;;;;;20.30;99.90;;;;;;8329287;28;19929;-72
2023/07/23 20:15:05;;;;;;;;;;;20.30;99.90;;;;;;8327072;28;19929;-71
2023/07/23 20:19:06;;;;;;;;;;;20.20;99.90;;;;;;8335379;28;20388;-71
2023/07/23 20:23:08;;;;;;;;;;;20.20;99.90;;;;;;8347615;28;19936;-71
2023/07/23 20:27:10;;;;;;;;;;;20.20;99.90;;;;;;8331232;28;20415;-71
2023/07/23 20:31:11;;;;;;;;;;;20.10;99.90;;;;;;8341145;28;19929;-72
2023/07/23 20:35:15;;;;;;;;;;;20.10;99.90;;;;;;8333002;28;20382;-71
2023/07/23 20:39:17;;;;;;;;;;;20.00;99.90;;;;;;8351816;28;19925;-72
2023/07/23 20:43:18;;;;;;;;;;;20.00;99.90;;;;;;8330348;28;19929;-71
2023/07/23 20:47:20;;;;;;;;;;;19.90;99.90;;;;;;8333434;28;19924;-71
2023/07/23 20:51:22;;;;;;;;;;;19.90;99.90;;;;;;8345697;28;19975;-71
2023/07/23 20:55:24;;;;;;;;;;;19.80;99.90;;;;;;8331055;28;20012;-71
2023/07/23 20:59:25;;;;;;;;;;;19.80;99.90;;;;;;8345359;28;19933;-72
2023/07/23 21:03:27;;;;;;;;;;;19.70;99.90;;;;;;8363483;28;20010;-71
2023/07/23 21:07:28;;;;;;;;;;;19.60;99.90;;;;;;8374348;28;19936;-71
2023/07/23 21:11:30;;;;;;;;;;;19.60;99.90;;;;;;8361414;28;20371;-72
2023/07/23 21:40:30;;;;;;;;;;;19.40;99.90;;;;;;8377494;28;19939;-71
2023/07/23 21:44:32;;;;;;;;;;;19.30;99.90;;;;;;8385158;28;19924;-71
2023/07/23 21:48:34;;;;;;;;;;;19.30;99.90;;;;;;8386652;28;19932;-71
2023/07/23 21:52:35;;;;;;;;;;;19.30;99.90;;;;;;8391669;28;20311;-72
2023/07/23 21:56:37;;;;;;;;;;;19.30;99.90;;;;;;8356033;28;20398;-71
2023/07/23 22:00:39;;;;;;;;;;;19.20;99.90;;;;;;8367284;28;20299;-72
2023/07/23 22:04:41;;;;;;;;;;;19.20;99.90;;;;;;8374076;28;19924;-72
2023/07/23 22:08:42;;;;;;;;;;;19.20;99.90;;;;;;8378436;28;19951;-71
2023/07/23 22:12:44;;;;;;;;;;;19.20;99.90;;;;;;8380753;28;19936;-72
2023/07/23 22:16:45;;;;;;;;;;;19.20;99.90;;;;;;8401800;28;19924;-72
2023/07/23 22:20:47;;;;;;;;;;;19.30;99.90;;;;;;8380588;28;19924;-72
2023/07/23 22:24:49;;;;;;;;;;;19.30;99.90;;;;;;8383405;28;19925;-72
2023/07/23 22:28:51;;;;;;;;;;;19.30;99.90;;;;;;8393153;28;20438;-71
2023/07/23 22:32:52;;;;;;;;;;;19.20;99.90;;;;;;8386074;28;20403;-71
2023/07/23 22:36:54;;;;;;;;;;;19.20;99.90;;;;;;8391892;28;20394;-72
2023/07/23 22:40:56;;;;;;;;;;;19.20;99.90;;;;;;8357041;28;20368;-71
2023/07/23 22:44:57;;;;;;;;;;;19.20;99.90;;;;;;8359156;28;20321;-71
2023/07/23 22:49:00;;;;;;;;;;;19.20;99.90;;;;;;8402731;28;19925;-71
2023/07/23 22:53:01;;;;;;;;;;;19.20;99.90;;;;;;8387729;28;19928;-71
2023/07/23 22:57:03;;;;;;;;;;;19.20;99.90;;;;;;8374406;28;19924;-71
2023/07/23 23:01:05;;;;;;;;;;;19.20;99.90;;;;;;8382988;28;19924;-71
2023/07/23 23:05:07;;;;;;;;;;;19.30;99.90;;;;;;8390802;28;20019;-71
2023/07/23 23:09:08;;;;;;;;;;;19.20;99.90;;;;;;8386923;28;19925;-71
2023/07/23 23:13:10;;;;;;;;;;;19.20;99.90;;;;;;8375865;28;19928;-71
2023/07/23 23:17:12;;;;;;;;;;;19.20;99.90;;;;;;8398381;28;19925;-72
2023/07/23 23:21:14;;;;;;;;;;;19.20;99.90;;;;;;8362649;28;19925;-71
2023/07/23 23:25:15;;;;;;;;;;;19.20;99.90;;;;;;8365450;28;19940;-71
2023/07/23 23:29:17;;;;;;;;;;;19.20;99.90;;;;;;8373296;28;19931;-71
2023/07/23 23:33:19;;;;;;;;;;;19.20;99.90;;;;;;8389685;28;19940;-71
2023/07/23 23:37:20;;;;;;;;;;;19.20;99.90;;;;;;8376281;28;20028;-71
2023/07/23 23:41:22;;;;;;;;;;;19.10;99.90;;;;;;8387521;28;19930;-72
2023/07/23 23:45:24;;;;;;;;;;;19.10;99.90;;;;;;8376058;28;20339;-71
2023/07/23 23:49:25;;;;;;;;;;;19.10;99.90;;;;;;8369671;28;20375;-71
2023/07/23 23:53:27;;;;;;;;;;;19.10;99.90;;;;;;8375048;28;20269;-71
2023/07/23 23:57:29;;;;;;;;;;;19.10;99.90;;;;;;8392948;28;19928;-71
